Alpine, Arkansas
Current Conditions -  °F | °C
As of 2:56 PM on Tuesday 21 Oct 2014 (Local Time) from KADF Reporting Station
Clear Clear  
Wind Chill: 78°   Ceiling: Unl
Heat Index: 79°   Visibility: 10mi
Dew Point: 58°   Wind: 5mph
Humidity: 50%   Direction: 360°N
Pressure: 30.05"   Gusts: NA
Location:  34.23°N, 93.38°W
Report Text: KADF 211956Z AUTO 36004KT 10SM CLR 26/14 A3005 RMK AO2 T02550144 SLP189
Loading
Personal Weather Stations






























Interactive Weather Map New forecast layout! Learn more

10-Day Weather Forecast

Advertisements
Track Severe Weather on mobile